Main page
METAR-TAF:

METAR-TAF

Airports :

Sligo, Ireland

Sligo Airport

latitude: 54-16-49N, longitude: 8-35-57W, elevation: 3 m

Current weather observation

The report was made 2 hours and 12 minutes ago, at 18:00 UTC
Wind 6 kt from the East/Southeast, varying between East and South/Southeast
Temperature 7°C
Humidity 100%
Pressure 1027 hPa
Visibility: 6000 m
Overcast at a height of 400 ft
light drizzle

METAR: EISG 181800Z 12006KT 090V150 6000 -DZ OVC004 07/07 Q1027

Time: 20:12 (20:12 UTC)

Forecast

The report was made 3 hours and 12 minutes ago, at 17:00 UTC
Forecast valid from 18 at 18 UTC to 19 at 03 UTC
Wind 8 kt from the Southeast
Visibility 10 km or more
Broken clouds at a height of 700 ft
Overcast at a height of 4000 ft
Becoming
from 18 at 18 UTC to 18 at 20 UTC
Visibility: 4000 m
Overcast at a height of 700 ft
light drizzle

TAF: EISG 181700Z 1818/1903 14008KT 9999 BKN007 OVC040 BECMG 1818/1820 4000 -DZ OVC007

Weather observations and forecasts of more than 4000 airports (METAR and TAF reports).

The available stations are represented by yellow and red dots on the map.

Hover mouse over dot to see the name of the station.

Then click to see weather observations and forecasts.

To change the map : click on the green buttons with a black cross to zoom in, on the green button with a dash to zoom out, or on the green arrows for adjacent maps.


METAR-TAF: